createdAt,value
2019-04-22T00:00:36.662Z,12.34
2019-04-22T00:03:10.545Z,12.29
2019-04-22T00:05:56.288Z,12.25
2019-04-22T00:08:36.288Z,12.25
2019-04-22T00:11:04.898Z,12.26
2019-04-22T00:13:43.897Z,12.22
2019-04-22T00:16:01.091Z,12.33
2019-04-22T00:18:42.859Z,12.18
2019-04-22T00:21:12.547Z,11.99
2019-04-22T00:23:41.868Z,11.97
2019-04-22T00:26:12.636Z,12.01
2019-04-22T00:28:43.725Z,11.96
2019-04-22T00:31:40.578Z,11.91
2019-04-22T00:34:11.181Z,11.88
2019-04-22T00:36:51.484Z,11.80
2019-04-22T00:39:25.433Z,11.85
2019-04-22T00:41:53.597Z,11.92
2019-04-22T00:44:29.820Z,11.88
2019-04-22T00:46:55.206Z,11.90
2019-04-22T00:50:10.906Z,11.75
2019-04-22T00:52:01.223Z,11.70
2019-04-22T00:54:21.402Z,11.69
2019-04-22T00:56:53.967Z,11.75
2019-04-22T00:59:23.354Z,11.68
2019-04-22T01:02:00.905Z,11.59
2019-04-22T01:04:34.774Z,11.49
2019-04-22T01:07:00.733Z,11.56
2019-04-22T01:09:40.163Z,11.47
2019-04-22T01:12:07.537Z,11.36
2019-04-22T01:14:35.630Z,11.15
2019-04-22T01:17:05.993Z,11.16
2019-04-22T01:19:48.265Z,11.15
2019-04-22T01:22:12.959Z,11.18
2019-04-22T01:24:38.678Z,11.17
2019-04-22T01:27:07.966Z,11.08
2019-04-22T01:29:39.714Z,11.07
2019-04-22T01:31:58.098Z,11.07
2019-04-22T01:34:40.092Z,11.01
2019-04-22T01:37:20.330Z,11.11
2019-04-22T01:40:00.146Z,11.02
2019-04-22T01:42:24.588Z,11.09
2019-04-22T01:44:58.167Z,11.15
2019-04-22T01:47:31.349Z,11.03
2019-04-22T01:49:59.817Z,10.79
2019-04-22T01:52:31.376Z,10.57
2019-04-22T01:57:30.415Z,9.82
2019-04-22T02:00:00.923Z,9.63
2019-04-22T02:02:44.057Z,9.58
2019-04-22T02:05:15.782Z,9.78
2019-04-22T02:07:41.946Z,9.90
2019-04-22T02:10:14.000Z,9.73
2019-04-22T02:15:12.497Z,9.71
2019-04-22T02:17:47.766Z,9.87
2019-04-22T02:20:34.711Z,9.97
2019-04-22T02:26:03.339Z,10.21
2019-04-22T02:28:38.304Z,10.32
2019-04-22T02:31:23.070Z,10.39
2019-04-22T02:43:51.861Z,9.84
2019-04-22T02:51:16.862Z,9.66
2019-04-22T02:54:17.213Z,9.58
2019-04-22T03:04:03.369Z,9.87
2019-04-22T03:08:53.761Z,9.99
2019-04-22T03:14:00.715Z,9.99
2019-04-22T03:21:23.861Z,8.59
2019-04-22T03:26:31.936Z,8.89
2019-04-22T03:28:57.071Z,9.07
2019-04-22T03:52:11.597Z,9.31
2019-04-22T04:02:21.600Z,8.09
2019-04-22T04:04:43.159Z,8.22
2019-04-22T04:10:00.994Z,8.62
2019-04-22T04:12:24.986Z,8.75
2019-04-22T04:15:11.664Z,8.81
2019-04-22T04:20:05.743Z,8.91
2019-04-22T04:22:53.782Z,8.96
2019-04-22T04:27:49.117Z,8.85
2019-04-22T04:30:05.500Z,8.08
2019-04-22T04:35:19.311Z,8.20
2019-04-22T04:45:23.989Z,8.38
2019-04-22T04:50:06.882Z,8.13
2019-04-22T04:55:17.527Z,8.46
2019-04-22T05:02:44.605Z,8.95
2019-04-22T05:05:16.715Z,8.67
2019-04-22T05:07:47.850Z,8.73
2019-04-22T05:10:31.491Z,8.69
2019-04-22T05:12:52.771Z,8.68
2019-04-22T05:15:20.491Z,8.51
2019-04-22T05:17:52.361Z,8.39
2019-04-22T05:20:26.575Z,8.42
2019-04-22T05:25:19.573Z,9.09
2019-04-22T05:27:45.349Z,9.48
2019-04-22T05:32:52.247Z,9.99
2019-04-22T05:37:57.990Z,10.49
2019-04-22T05:40:24.353Z,10.69
2019-04-22T05:42:55.996Z,10.77
2019-04-22T05:47:59.383Z,10.69
2019-04-22T05:50:23.909Z,10.80
2019-04-22T05:52:55.372Z,10.89
2019-04-22T05:58:02.783Z,10.95
2019-04-22T06:00:40.416Z,11.10
2019-04-22T06:03:07.001Z,11.27
2019-04-22T06:05:35.930Z,11.38
2019-04-22T06:08:10.238Z,11.46
2019-04-22T06:10:45.383Z,11.51
2019-04-22T06:13:13.972Z,11.76
2019-04-22T06:15:37.290Z,12.06
2019-04-22T06:18:22.584Z,12.27
2019-04-22T06:20:59.477Z,12.48
2019-04-22T06:23:25.644Z,12.70
2019-04-22T06:26:05.261Z,12.96
2019-04-22T06:28:40.638Z,13.15
2019-04-22T06:33:26.062Z,13.61
2019-04-22T06:38:35.891Z,14.14
2019-04-22T06:41:05.798Z,14.38
2019-04-22T06:46:06.304Z,14.77
2019-04-22T06:48:30.103Z,14.95
2019-04-22T06:51:05.223Z,15.22
2019-04-22T06:53:37.445Z,15.38
2019-04-22T06:56:06.660Z,15.61
2019-04-22T06:58:41.061Z,15.73
2019-04-22T07:01:15.771Z,15.93
2019-04-22T07:06:17.606Z,16.18
2019-04-22T07:09:06.009Z,16.35
2019-04-22T07:11:06.247Z,16.56
2019-04-22T07:14:00.229Z,16.74
2019-04-22T07:16:18.745Z,17.07
2019-04-22T07:19:01.906Z,17.56
2019-04-22T07:21:12.691Z,18.35
2019-04-22T07:24:20.058Z,20.25
2019-04-22T07:26:29.100Z,23.19
2019-04-22T07:28:49.833Z,25.82
2019-04-22T07:31:20.920Z,28.87
2019-04-22T07:33:51.380Z,31.67
2019-04-22T07:38:50.789Z,34.94
2019-04-22T07:41:27.012Z,36.55
2019-04-22T07:48:57.644Z,38.31
2019-04-22T07:51:32.709Z,39.57
2019-04-22T07:54:01.071Z,41.22
2019-04-22T07:56:31.748Z,42.10
2019-04-22T07:59:07.369Z,43.18
2019-04-22T08:01:30.843Z,43.40
2019-04-22T08:06:43.569Z,42.52
2019-04-22T08:09:13.917Z,42.73
2019-04-22T08:14:10.487Z,39.17
2019-04-22T08:16:43.924Z,38.61
2019-04-22T08:19:15.757Z,37.41
2019-04-22T08:21:45.476Z,39.31
2019-04-22T08:24:17.865Z,41.18
2019-04-22T08:26:46.739Z,41.53
2019-04-22T08:29:19.125Z,40.40
2019-04-22T08:31:49.233Z,38.10
2019-04-22T08:34:23.328Z,39.76
2019-04-22T08:37:12.012Z,39.68
2019-04-22T08:39:18.678Z,38.99
2019-04-22T08:41:51.288Z,39.57
2019-04-22T08:44:27.941Z,39.51
2019-04-22T08:46:57.865Z,40.62
2019-04-22T08:49:30.191Z,39.99
2019-04-22T08:51:55.676Z,41.59
2019-04-22T08:54:27.864Z,43.65
2019-04-22T08:56:58.297Z,44.18
2019-04-22T08:59:21.799Z,40.37
2019-04-22T09:01:59.359Z,38.60
2019-04-22T09:04:27.875Z,37.82
2019-04-22T09:07:16.634Z,38.25
2019-04-22T09:09:34.040Z,39.05
2019-04-22T09:12:07.869Z,40.97
2019-04-22T09:14:40.627Z,40.40
2019-04-22T09:17:13.336Z,37.43
2019-04-22T09:19:35.229Z,40.09
2019-04-22T09:22:11.258Z,42.35
2019-04-22T09:24:43.852Z,43.48
2019-04-22T09:27:22.493Z,44.49
2019-04-22T09:32:24.858Z,43.09
2019-04-22T09:34:47.337Z,40.54
2019-04-22T09:37:21.030Z,37.82
2019-04-22T09:39:52.229Z,35.21
2019-04-22T09:42:17.446Z,35.21
2019-04-22T09:44:47.311Z,34.57
2019-04-22T09:47:19.254Z,33.87
2019-04-22T09:49:55.253Z,33.26
2019-04-22T09:52:20.639Z,33.03
2019-04-22T09:55:01.578Z,32.86
2019-04-22T09:57:24.665Z,31.93
2019-04-22T10:00:10.906Z,31.25
2019-04-22T10:05:00.147Z,31.30
2019-04-22T10:07:32.466Z,31.66
2019-04-22T10:10:14.367Z,31.85
2019-04-22T10:15:00.529Z,31.62
2019-04-22T10:17:32.258Z,30.96
2019-04-22T10:20:06.706Z,30.70
2019-04-22T10:22:39.361Z,31.08
2019-04-22T10:25:08.264Z,31.57
2019-04-22T10:27:45.623Z,31.71
2019-04-22T10:30:04.573Z,31.78
2019-04-22T10:32:39.609Z,32.02
2019-04-22T10:35:09.300Z,32.06
2019-04-22T10:37:36.586Z,32.37
2019-04-22T10:40:09.874Z,32.63
2019-04-22T10:42:43.379Z,32.54
2019-04-22T10:45:14.499Z,32.60
2019-04-22T10:47:43.870Z,32.70
2019-04-22T10:50:14.692Z,32.72
2019-04-22T10:52:43.926Z,32.54
2019-04-22T10:55:13.802Z,32.71
2019-04-22T10:57:44.244Z,32.61
2019-04-22T11:00:15.452Z,32.50
2019-04-22T11:02:45.700Z,32.29
2019-04-22T11:05:16.684Z,32.50
2019-04-22T11:07:53.898Z,32.67
2019-04-22T11:10:34.602Z,32.74
2019-04-22T11:12:49.367Z,33.08
2019-04-22T11:15:19.272Z,33.09
2019-04-22T11:17:49.516Z,32.80
2019-04-22T11:20:19.879Z,32.76
2019-04-22T11:22:50.936Z,32.39
2019-04-22T11:25:21.654Z,32.32
2019-04-22T11:27:51.448Z,32.22
2019-04-22T11:30:24.196Z,32.22
2019-04-22T11:32:54.108Z,32.11
2019-04-22T11:35:23.859Z,32.36
2019-04-22T11:37:53.113Z,32.74
2019-04-22T11:40:28.560Z,33.04
2019-04-22T11:42:54.463Z,33.27
2019-04-22T11:45:24.090Z,33.28
2019-04-22T11:47:55.173Z,32.94
2019-04-22T11:50:26.121Z,31.98
2019-04-22T11:52:55.930Z,31.76
2019-04-22T11:55:28.654Z,32.03
2019-04-22T11:57:56.493Z,32.59
2019-04-22T12:00:31.005Z,32.90
2019-04-22T12:03:01.083Z,33.32
2019-04-22T12:05:30.316Z,33.78
2019-04-22T12:07:59.561Z,34.43
2019-04-22T12:10:39.717Z,34.61
2019-04-22T12:13:02.101Z,34.73
2019-04-22T12:15:32.902Z,34.86
2019-04-22T12:18:03.707Z,34.85
2019-04-22T12:20:33.103Z,34.80
2019-04-22T12:23:03.239Z,34.55
2019-04-22T12:25:43.371Z,34.57
2019-04-22T12:28:03.675Z,34.69
2019-04-22T12:30:33.396Z,34.79
2019-04-22T12:33:04.275Z,34.55
2019-04-22T12:35:34.622Z,34.45
2019-04-22T12:38:08.436Z,34.55
2019-04-22T12:40:42.463Z,34.23
2019-04-22T12:43:08.708Z,34.30
2019-04-22T12:45:38.580Z,34.39
2019-04-22T12:48:08.714Z,32.48
2019-04-22T12:50:43.419Z,32.45
2019-04-22T12:53:13.862Z,32.80
2019-04-22T12:55:42.029Z,31.49
2019-04-22T12:58:11.846Z,30.72
2019-04-22T13:00:44.929Z,30.07
2019-04-22T13:03:14.344Z,29.62
2019-04-22T13:05:45.150Z,30.09
2019-04-22T13:08:15.727Z,30.74
2019-04-22T13:10:53.336Z,29.83
2019-04-22T13:13:16.149Z,29.35
2019-04-22T13:15:46.795Z,28.99
2019-04-22T13:18:24.832Z,27.60
2019-04-22T13:20:48.479Z,27.45
2019-04-22T13:23:18.149Z,28.07
2019-04-22T13:25:49.099Z,28.52
2019-04-22T13:28:19.075Z,28.98
2019-04-22T13:30:48.672Z,28.15
2019-04-22T13:33:19.174Z,28.11
2019-04-22T13:35:49.856Z,27.65
2019-04-22T13:38:19.290Z,27.24
2019-04-22T13:41:00.932Z,27.71
2019-04-22T13:43:20.769Z,28.55
2019-04-22T13:45:50.162Z,29.17
2019-04-22T13:48:38.208Z,29.19
2019-04-22T13:51:20.797Z,28.20
2019-04-22T13:54:27.246Z,27.60
2019-04-22T13:56:13.157Z,27.52
2019-04-22T13:58:35.762Z,27.48
2019-04-22T14:00:56.652Z,27.39
2019-04-22T14:03:52.222Z,26.81
2019-04-22T14:06:22.665Z,26.45
2019-04-22T14:08:53.328Z,26.18
2019-04-22T14:11:34.561Z,26.43
2019-04-22T14:13:53.696Z,26.49
2019-04-22T14:16:24.518Z,26.53
2019-04-22T14:18:54.034Z,26.78
2019-04-22T14:21:23.277Z,26.51
2019-04-22T14:23:56.427Z,25.89
2019-04-22T14:26:27.102Z,25.87
2019-04-22T14:28:57.551Z,26.51
2019-04-22T14:31:26.944Z,27.35
2019-04-22T14:34:01.366Z,27.00
2019-04-22T14:36:27.595Z,26.98
2019-04-22T14:38:57.786Z,26.65
2019-04-22T14:41:42.362Z,27.09
2019-04-22T14:45:04.982Z,27.53
2019-04-22T14:47:05.768Z,28.55
2019-04-22T14:49:24.078Z,28.17
2019-04-22T14:51:55.062Z,27.44
2019-04-22T14:54:19.445Z,27.02
2019-04-22T15:47:50.219Z,25.86
2019-04-22T15:50:19.639Z,26.25
2019-04-22T15:52:53.034Z,26.87
2019-04-22T15:55:20.736Z,27.31
2019-04-22T15:57:50.097Z,27.20
2019-04-22T16:00:33.157Z,26.44
2019-04-22T16:02:51.967Z,26.14
2019-04-22T16:05:22.519Z,26.31
2019-04-22T16:07:52.961Z,26.77
2019-04-22T16:10:23.820Z,27.17
2019-04-22T16:13:03.520Z,27.74
2019-04-22T16:15:24.729Z,27.78
2019-04-22T16:17:54.987Z,28.21
2019-04-22T16:20:26.036Z,28.34
2019-04-22T16:23:20.277Z,28.55
2019-04-22T16:26:03.103Z,28.84
2019-04-22T16:28:33.449Z,28.96
2019-04-22T16:31:03.847Z,29.00
2019-04-22T16:33:38.387Z,28.70
2019-04-22T16:36:07.078Z,28.33
2019-04-22T16:38:37.244Z,27.98
2019-04-22T16:41:06.801Z,27.66
2019-04-22T16:43:36.610Z,27.57
2019-04-22T16:46:09.736Z,27.70
2019-04-22T16:48:39.963Z,27.81
2019-04-22T16:51:09.890Z,27.60
2019-04-22T16:53:39.312Z,27.70
2019-04-22T16:56:08.869Z,27.61
2019-04-22T16:58:38.857Z,27.02
2019-04-22T17:01:20.740Z,26.64
2019-04-22T17:04:16.513Z,26.39
2019-04-22T17:06:46.011Z,26.37
2019-04-22T17:09:17.611Z,26.37
2019-04-22T17:11:47.784Z,26.17
2019-04-22T17:14:25.427Z,25.78
2019-04-22T17:16:48.620Z,25.48
2019-04-22T17:19:19.259Z,25.38
2019-04-22T17:21:49.951Z,25.34
2019-04-22T17:24:21.799Z,25.34
2019-04-22T17:26:52.997Z,25.30
2019-04-22T17:29:22.811Z,25.11
2019-04-22T17:31:58.391Z,24.59
2019-04-22T17:34:23.488Z,24.38
2019-04-22T17:36:53.207Z,24.42
2019-04-22T17:39:40.414Z,24.28
2019-04-22T17:42:14.015Z,24.27
2019-04-22T17:44:48.140Z,23.96
2019-04-22T17:47:29.026Z,23.96
2019-04-22T17:50:11.734Z,23.69
2019-04-22T17:52:42.343Z,23.56
2019-04-22T17:55:11.326Z,23.23
2019-04-22T17:57:39.383Z,23.06
2019-04-22T18:00:11.271Z,22.84
2019-04-22T18:02:43.007Z,22.62
2019-04-22T18:05:01.991Z,22.34
2019-04-22T18:07:49.313Z,22.00
2019-04-22T18:13:01.740Z,21.60
2019-04-22T18:15:23.869Z,21.43
2019-04-22T18:18:00.536Z,21.13
2019-04-22T18:20:25.430Z,20.93
2019-04-22T18:22:49.035Z,20.79
2019-04-22T18:25:20.349Z,20.62
2019-04-22T18:28:09.060Z,20.45
2019-04-22T18:30:24.200Z,20.35
2019-04-22T18:32:57.059Z,20.28
2019-04-22T18:35:30.856Z,20.11
2019-04-22T18:38:11.314Z,20.02
2019-04-22T18:40:36.296Z,19.86
2019-04-22T18:43:09.950Z,19.73
2019-04-22T18:48:03.948Z,19.61
2019-04-22T18:51:09.605Z,19.41
2019-04-22T18:53:48.379Z,19.31
2019-04-22T18:56:19.227Z,19.20
2019-04-22T18:58:42.114Z,19.03
2019-04-22T19:00:59.684Z,18.99
2019-04-22T19:03:32.153Z,18.86
2019-04-22T19:06:32.286Z,18.87
2019-04-22T19:08:55.499Z,18.81
2019-04-22T19:11:20.885Z,18.72
2019-04-22T19:14:17.600Z,18.66
2019-04-22T19:16:43.355Z,18.57
2019-04-22T19:19:17.835Z,18.51
2019-04-22T19:21:26.029Z,18.46
2019-04-22T19:23:54.070Z,18.38
2019-04-22T19:26:48.241Z,18.33
2019-04-22T19:29:03.899Z,18.25
2019-04-22T19:31:34.710Z,18.16
2019-04-22T19:34:03.023Z,18.12
2019-04-22T19:36:43.538Z,18.08
2019-04-22T19:39:07.992Z,18.07
2019-04-22T19:41:42.260Z,18.11
2019-04-22T19:44:13.170Z,18.05
2019-04-22T19:46:43.469Z,17.94
2019-04-22T19:49:17.050Z,17.91
2019-04-22T19:51:53.917Z,17.89
2019-04-22T19:54:14.045Z,17.74
2019-04-22T19:56:38.387Z,17.71
2019-04-22T19:59:15.002Z,17.68
2019-04-22T20:02:00.964Z,17.59
2019-04-22T20:04:59.645Z,17.59
2019-04-22T20:07:40.097Z,17.64
2019-04-22T20:10:17.218Z,17.60
2019-04-22T20:12:42.894Z,17.52
2019-04-22T20:15:17.025Z,17.50
2019-04-22T20:18:08.615Z,17.45
2019-04-22T20:20:24.582Z,17.45
2019-04-22T20:22:49.443Z,17.42
2019-04-22T20:25:12.351Z,17.47
2019-04-22T20:27:54.690Z,17.36
2019-04-22T20:30:29.290Z,17.33
2019-04-22T20:32:52.461Z,17.25
2019-04-22T20:35:28.114Z,17.15
2019-04-22T20:37:56.759Z,17.15
2019-04-22T20:40:36.104Z,17.17
2019-04-22T20:43:09.165Z,17.16
2019-04-22T20:45:35.155Z,17.14
2019-04-22T20:47:58.809Z,17.13
2019-04-22T20:50:37.333Z,16.95
2019-04-22T20:53:13.390Z,17.01
2019-04-22T20:55:36.853Z,17.00
2019-04-22T20:58:12.214Z,16.98
2019-04-22T21:00:36.573Z,16.88
2019-04-22T21:03:03.233Z,16.88
2019-04-22T21:05:34.182Z,16.80
2019-04-22T21:08:19.020Z,16.77
2019-04-22T21:10:42.568Z,16.72
2019-04-22T21:13:11.121Z,16.70
2019-04-22T21:15:49.378Z,16.68
2019-04-22T21:18:15.115Z,16.64
2019-04-22T21:20:59.250Z,16.68
2019-04-22T21:23:21.380Z,16.69
2019-04-22T21:25:47.424Z,16.58
2019-04-22T21:28:31.205Z,16.56
2019-04-22T21:30:55.160Z,16.47
2019-04-22T21:33:23.588Z,16.47
2019-04-22T21:36:25.120Z,16.51
2019-04-22T21:38:40.386Z,16.53
2019-04-22T21:41:10.014Z,16.47
2019-04-22T21:43:42.530Z,16.44
2019-04-22T21:46:13.432Z,16.31
2019-04-22T21:48:42.652Z,16.38
2019-04-22T21:51:19.198Z,16.37
2019-04-22T21:53:55.499Z,16.37
2019-04-22T21:56:34.905Z,16.39
2019-04-22T21:58:50.670Z,16.39
2019-04-22T22:01:38.123Z,16.37
2019-04-22T22:04:03.311Z,16.36
2019-04-22T22:06:23.567Z,16.33
2019-04-22T22:09:05.839Z,16.29
2019-04-22T22:11:35.135Z,16.26
2019-04-22T22:14:02.441Z,16.11
2019-04-22T22:16:33.573Z,16.07
2019-04-22T22:19:08.169Z,16.03
2019-04-22T22:21:48.349Z,15.98
2019-04-22T22:24:08.961Z,15.90
2019-04-22T22:26:44.788Z,15.92
2019-04-22T22:29:20.196Z,15.91
2019-04-22T22:31:47.063Z,15.91
2019-04-22T22:34:19.163Z,15.81
2019-04-22T22:36:42.151Z,15.88
2019-04-22T22:39:13.264Z,15.79
2019-04-22T22:41:27.878Z,15.75
2019-04-22T22:44:06.956Z,15.77
2019-04-22T22:46:39.229Z,15.71
2019-04-22T22:49:22.955Z,15.62
2019-04-22T22:51:53.250Z,15.62
2019-04-22T22:54:25.144Z,15.56
2019-04-22T22:56:59.678Z,15.56
2019-04-22T22:59:27.536Z,15.57
2019-04-22T23:01:54.510Z,15.56
2019-04-22T23:04:34.233Z,15.53
2019-04-22T23:07:00.422Z,15.50
2019-04-22T23:09:30.608Z,15.45
2019-04-22T23:14:32.741Z,15.32
2019-04-22T23:16:51.443Z,15.31
2019-04-22T23:19:15.698Z,15.28
2019-04-22T23:21:49.962Z,15.19
2019-04-22T23:24:50.109Z,15.19
2019-04-22T23:27:27.309Z,15.05
2019-04-22T23:30:01.195Z,15.08
2019-04-22T23:32:31.931Z,15.10
2019-04-22T23:35:14.434Z,15.10
2019-04-22T23:37:47.580Z,15.02
2019-04-22T23:40:29.689Z,14.97
2019-04-22T23:42:53.032Z,14.88
2019-04-22T23:45:27.051Z,14.85
2019-04-22T23:47:43.493Z,14.76
2019-04-22T23:50:26.691Z,14.63
2019-04-22T23:53:00.576Z,14.62
2019-04-22T23:55:33.449Z,14.55
2019-04-22T23:58:02.690Z,14.58
